PDT,Max TemperatureF,Mean TemperatureF,Min TemperatureF,Max Dew PointF,MeanDew PointF,Min DewpointF,Max Humidity, Mean Humidity, Min Humidity, Max Sea Level PressureIn, Mean Sea Level PressureIn, Min Sea Level PressureIn, Max VisibilityMiles, Mean VisibilityMiles, Min VisibilityMiles, Max Wind SpeedMPH, Mean Wind SpeedMPH, Max Gust SpeedMPH,PrecipitationIn, CloudCover, Events, WindDirDegrees
2013-7-1,87,73,59,68,62,57,100,72,51,30.08,29.99,29.95,10,10,8,10,4,16,0.00,0,,292
2013-7-2,82,70,57,64,59,54,100,76,54,30.14,30.11,30.07,10,10,7,12,4,17,0.00,2,,315
2013-7-3,78,66,53,57,53,45,88,67,34,30.19,30.14,30.08,10,10,7,10,5,18,0.00,0,,260
2013-7-4,71,60,50,54,52,48,100,74,53,30.16,30.13,30.08,10,10,5,12,3,17,0.00,6,,247
2013-7-5,71,62,53,55,53,50,88,74,53,30.08,30.05,29.98,10,10,7,7,2,,0.00,5,,241
2013-7-6,78,64,50,59,54,48,100,76,47,30.02,29.97,29.89,10,10,6,9,2,,0.00,3,,339
2013-7-7,75,64,53,59,55,52,100,79,57,30.02,29.97,29.93,10,10,8,8,3,,0.00,4,,275
2013-7-8,77,65,53,61,56,50,100,76,54,30.13,30.08,30.02,10,10,5,9,2,,0.00,4,,345
2013-7-9,84,68,53,63,57,54,100,73,42,30.14,30.09,30.03,10,8,0,9,3,16,0.00,1,Fog,329
2013-7-10,75,63,51,54,50,46,94,69,41,30.12,30.07,30.01,10,9,5,10,5,18,0.00,1,,253
2013-7-11,73,62,50,50,48,46,94,65,41,30.10,30.06,30.02,10,9,5,9,5,16,0.00,3,,273
2013-7-12,69,58,46,54,49,46,100,74,49,30.15,30.08,30.05,10,8,1,9,2,,0.00,1,,315
2013-7-13,77,60,42,55,48,41,100,67,34,30.22,30.17,30.11,10,9,5,13,4,18,0.00,0,,344
2013-7-14,82,64,46,54,48,37,100,62,23,30.16,30.10,30.02,10,8,2,10,3,,0.00,0,,323
2013-7-15,80,63,46,54,49,43,100,61,26,30.07,30.00,29.89,10,8,2,20,4,28,0.00,0,,13
2013-7-16,84,68,51,61,54,48,94,60,39,29.95,29.87,29.81,10,10,5,12,3,,0.00,0,,354
2013-7-17,73,63,53,57,55,52,94,77,53,30.23,30.15,29.97,10,8,3,9,3,,0.00,4,,264
2013-7-18,77,62,46,59,54,46,100,81,54,30.27,30.21,30.14,10,7,0,7,1,,0.00,3,Fog,327
2013-7-19,80,65,50,63,56,50,100,79,54,30.20,30.15,30.07,10,8,5,10,4,16,0.00,3,,302
2013-7-20,77,66,55,61,55,52,94,80,50,30.13,30.07,30.00,10,8,5,9,3,,0.00,4,,302
2013-7-21,75,65,55,61,55,52,94,79,57,30.03,30.00,29.96,10,9,5,9,3,,0.00,5,,279
2013-7-22,73,64,55,61,56,54,100,81,64,30.10,30.05,30.00,10,8,5,10,3,,0.00,5,,330
2013-7-23,86,70,53,63,57,54,100,75,35,30.10,30.05,29.98,10,6,0,12,3,17,0.00,3,Fog,349
2013-7-24,84,68,51,63,56,46,100,72,41,30.10,30.06,30.01,10,9,5,9,2,,0.00,2,,345
2013-7-25,86,68,50,57,53,48,100,69,33,30.15,30.10,30.07,10,9,5,9,3,,0.00,2,,330
2013-7-26,84,66,48,57,51,41,100,66,23,30.19,30.15,30.12,10,9,4,10,2,22,0.00,0,,277
2013-7-27,77,62,48,55,51,46,94,70,41,30.21,30.14,30.05,10,7,5,13,5,16,0.00,2,,231
2013-7-28,69,60,51,54,52,48,94,76,56,30.07,30.05,30.02,10,8,5,9,4,,0.00,7,,221
2013-7-29,77,67,57,59,54,50,88,70,50,30.06,30.01,29.97,10,9,5,9,2,,0.00,4,,342
2013-7-30,75,65,55,59,55,52,94,79,53,30.18,30.13,30.06,10,8,4,10,2,,0.00,4,,304
2013-7-31,75,65,55,63,56,54,94,83,57,30.16,30.11,30.03,10,9,5,8,2,,0.00,5,,328